aviador You're here:

KMSN Decoded Metar

MADISON in WI, USA
Report Time2018-04-24 01:53:00
UTC Time2018-04-24 02:27:29
Flight Rules vfr VFR
Wind030° at 06 kt
W.Decomp.*RWY 03: 6.0 kt HW 0.3 kt RCW
RWY 36: 5.0 kt HW 3.3 kt RCW
RWY 32: 1.8 kt HW 5.7 kt RCW
W.Rank030° ranks 27
Current wind is below 030° avg. (8.0)
Visibility9999 m
Phenomena:N/A
Clouds:Few 250 Hf
Expected CloudBase > 3,600 ft AGL from Temp-Dew spread
CeilingNone
Temp11°C (ISA -2)
Dew Point02°C (54% RH)
AAT7.2°C
QNH1020 hPa
Density Alt446 ft
Elevation856 ft
Report Wrong Elevation
Raw Report
KMSN 240153Z 03006KT 10SM FEW250 11/02 A3012 RMK AO2 SLP202
T01060017=

Extra information for KMSN:More info

Metar Taf Metar & Taf Last 4 Metars F.Rules Stats Wind Profile Meteogram Temp Stats Airport Information Weather charts Add Link Nearby VenuesMetar ALERT Operation Metar Decoded Social comments

AIRNAV info for KMSN